createdAt,value
2018-07-17T00:00:13.933Z,3.72
2018-07-17T00:02:42.254Z,3.60
2018-07-17T00:05:10.816Z,4.12
2018-07-17T00:07:39.132Z,4.05
2018-07-17T00:10:07.975Z,3.55
2018-07-17T00:12:36.471Z,3.33
2018-07-17T00:15:05.062Z,3.40
2018-07-17T00:17:33.958Z,3.40
2018-07-17T00:20:02.275Z,3.45
2018-07-17T00:22:30.595Z,3.10
2018-07-17T00:24:58.935Z,2.98
2018-07-17T00:27:27.277Z,2.80
2018-07-17T00:29:55.591Z,3.30
2018-07-17T00:32:23.912Z,3.33
2018-07-17T00:34:52.245Z,3.20
2018-07-17T00:37:20.589Z,3.17
2018-07-17T00:39:49.045Z,3.10
2018-07-17T00:42:17.370Z,3.50
2018-07-17T00:44:45.736Z,3.22
2018-07-17T00:47:14.056Z,3.80
2018-07-17T00:49:42.401Z,3.60
2018-07-17T00:52:10.756Z,3.90
2018-07-17T00:54:39.069Z,3.30
2018-07-17T00:57:07.481Z,3.30
2018-07-17T00:59:35.860Z,3.22
2018-07-17T01:02:09.627Z,3.35
2018-07-17T01:04:43.298Z,3.80
2018-07-17T01:07:17.148Z,3.30
2018-07-17T01:09:50.841Z,3.60
2018-07-17T01:12:18.282Z,3.53
2018-07-17T01:14:50.745Z,3.35
2018-07-17T01:17:19.129Z,3.45
2018-07-17T01:19:47.547Z,4.00
2018-07-17T01:22:15.891Z,3.50
2018-07-17T01:24:44.272Z,3.80
2018-07-17T01:27:12.680Z,3.47
2018-07-17T01:29:40.992Z,3.60
2018-07-17T01:32:09.303Z,3.90
2018-07-17T01:34:37.668Z,3.60
2018-07-17T01:37:05.989Z,3.80
2018-07-17T01:39:34.329Z,3.85
2018-07-17T01:42:02.647Z,3.72
2018-07-17T01:44:30.967Z,3.70
2018-07-17T01:46:59.271Z,3.50
2018-07-17T01:49:27.653Z,3.40
2018-07-17T01:51:55.980Z,3.77
2018-07-17T01:56:35.852Z,3.90
2018-07-17T01:59:04.224Z,3.83
2018-07-17T02:01:32.625Z,3.85
2018-07-17T02:04:01.000Z,3.80
2018-07-17T02:06:29.366Z,3.83
2018-07-17T02:08:57.792Z,4.00
2018-07-17T02:11:26.158Z,4.00
2018-07-17T02:13:54.488Z,4.20
2018-07-17T02:16:22.902Z,3.65
2018-07-17T02:18:51.326Z,3.90
2018-07-17T02:21:19.636Z,4.07
2018-07-17T02:23:47.952Z,4.77
2018-07-17T02:26:16.286Z,4.60
2018-07-17T02:28:44.593Z,4.17
2018-07-17T02:31:13.000Z,3.80
2018-07-17T02:33:41.285Z,4.13
2018-07-17T02:36:09.664Z,4.13
2018-07-17T02:38:37.972Z,4.13
2018-07-17T02:41:06.597Z,3.80
2018-07-17T02:43:34.916Z,3.80
2018-07-17T02:46:03.325Z,3.80
2018-07-17T02:48:31.645Z,4.47
2018-07-17T02:50:59.995Z,4.03
2018-07-17T02:53:28.337Z,4.45
2018-07-17T02:55:56.658Z,4.20
2018-07-17T02:58:25.019Z,4.20
2018-07-17T03:00:53.354Z,3.80
2018-07-17T03:03:22.292Z,4.40
2018-07-17T03:05:50.671Z,4.30
2018-07-17T03:08:18.983Z,4.53
2018-07-17T03:10:47.290Z,4.20
2018-07-17T03:13:15.616Z,4.10
2018-07-17T03:15:43.977Z,4.58
2018-07-17T03:18:12.310Z,4.30
2018-07-17T03:20:40.646Z,4.20
2018-07-17T03:23:09.141Z,4.60
2018-07-17T03:25:37.483Z,4.55
2018-07-17T03:28:05.805Z,4.55
2018-07-17T03:30:34.122Z,4.47
2018-07-17T03:33:02.532Z,4.30
2018-07-17T03:35:30.940Z,4.78
2018-07-17T03:37:59.237Z,4.53
2018-07-17T03:40:27.587Z,4.30
2018-07-17T03:42:55.945Z,4.50
2018-07-17T03:45:24.248Z,4.33
2018-07-17T03:47:52.595Z,4.33
2018-07-17T03:50:20.887Z,4.53
2018-07-17T03:52:49.253Z,5.00
2018-07-17T03:55:17.657Z,4.55
2018-07-17T03:57:46.017Z,3.92
2018-07-17T04:00:14.380Z,4.40
2018-07-17T04:02:42.729Z,4.72
2018-07-17T04:05:11.073Z,4.70
2018-07-17T04:07:39.438Z,4.70
2018-07-17T04:10:07.805Z,5.20
2018-07-17T04:12:36.156Z,4.67
2018-07-17T04:15:04.493Z,4.35
2018-07-17T04:17:32.875Z,4.80
2018-07-17T04:20:01.213Z,4.40
2018-07-17T04:22:30.541Z,4.37
2018-07-17T04:24:58.860Z,4.47
2018-07-17T04:27:27.371Z,4.80
2018-07-17T04:29:55.827Z,5.10
2018-07-17T04:32:24.137Z,4.40
2018-07-17T04:34:52.451Z,4.50
2018-07-17T04:37:20.751Z,4.50
2018-07-17T04:39:49.097Z,4.30
2018-07-17T04:42:17.444Z,4.22
2018-07-17T04:44:45.775Z,3.90
2018-07-17T04:47:14.145Z,4.40
2018-07-17T04:49:42.504Z,4.10
2018-07-17T04:52:10.959Z,4.40
2018-07-17T04:54:39.313Z,4.58
2018-07-17T04:57:07.835Z,4.30
2018-07-17T04:59:36.162Z,4.40
2018-07-17T05:02:04.547Z,4.65
2018-07-17T05:04:32.871Z,4.50
2018-07-17T05:07:01.222Z,4.80
2018-07-17T05:09:29.547Z,4.20
2018-07-17T05:11:57.862Z,5.30
2018-07-17T05:14:26.270Z,4.55
2018-07-17T05:16:54.774Z,4.42
2018-07-17T05:19:23.246Z,4.40
2018-07-17T05:21:51.574Z,4.67
2018-07-17T05:24:20.006Z,4.30
2018-07-17T05:26:48.292Z,4.50
2018-07-17T05:29:16.969Z,5.00
2018-07-17T05:31:45.334Z,5.40
2018-07-17T05:34:13.702Z,5.60
2018-07-17T05:36:42.098Z,6.80
2018-07-17T05:39:10.462Z,7.05
2018-07-17T05:41:38.993Z,6.00
2018-07-17T05:44:07.325Z,6.12
2018-07-17T05:46:35.731Z,5.65
2018-07-17T05:49:04.180Z,6.00
2018-07-17T05:51:32.549Z,4.95
2018-07-17T05:54:00.899Z,5.95
2018-07-17T05:56:29.281Z,5.30
2018-07-17T05:58:57.726Z,5.33
2018-07-17T06:01:26.084Z,5.50
2018-07-17T06:03:54.416Z,5.55
2018-07-17T06:06:22.775Z,6.45
2018-07-17T06:08:51.125Z,6.08
2018-07-17T06:11:19.492Z,5.70
2018-07-17T06:13:47.848Z,6.00
2018-07-17T06:16:16.258Z,5.37
2018-07-17T06:18:44.604Z,5.60
2018-07-17T06:21:12.941Z,5.58
2018-07-17T06:23:41.292Z,6.00
2018-07-17T06:26:09.658Z,5.60
2018-07-17T06:28:37.992Z,5.42
2018-07-17T06:31:06.364Z,5.80
2018-07-17T06:33:34.827Z,6.12
2018-07-17T06:36:03.249Z,5.30
2018-07-17T06:38:31.589Z,6.13
2018-07-17T06:41:00.299Z,6.10
2018-07-17T06:43:29.617Z,5.97
2018-07-17T06:45:58.020Z,6.58
2018-07-17T06:48:26.391Z,5.50
2018-07-17T06:50:54.842Z,6.00
2018-07-17T06:53:23.129Z,5.72
2018-07-17T06:55:51.437Z,5.85
2018-07-17T06:58:19.972Z,5.97
2018-07-17T07:00:48.284Z,5.33
2018-07-17T07:03:16.615Z,5.35
2018-07-17T07:05:44.957Z,5.30
2018-07-17T07:08:13.329Z,5.92
2018-07-17T07:10:41.675Z,6.05
2018-07-17T07:13:10.075Z,5.20
2018-07-17T07:15:38.432Z,6.00
2018-07-17T07:18:06.753Z,6.70
2018-07-17T07:20:35.112Z,5.80
2018-07-17T07:23:04.084Z,6.30
2018-07-17T07:25:32.394Z,6.17
2018-07-17T07:28:00.728Z,6.42
2018-07-17T07:30:29.108Z,5.80
2018-07-17T07:32:57.461Z,7.25
2018-07-17T07:35:26.081Z,7.47
2018-07-17T07:37:54.428Z,6.72
2018-07-17T07:40:22.776Z,7.67
2018-07-17T07:42:51.252Z,7.20
2018-07-17T07:45:19.524Z,7.70
2018-07-17T07:47:47.875Z,6.70
2018-07-17T07:50:16.280Z,6.75
2018-07-17T07:52:44.679Z,6.28
2018-07-17T07:55:13.023Z,7.05
2018-07-17T07:57:41.372Z,6.40
2018-07-17T08:00:09.710Z,6.40
2018-07-17T08:02:38.106Z,6.10
2018-07-17T08:05:06.767Z,6.92
2018-07-17T08:07:35.124Z,5.90
2018-07-17T08:10:03.508Z,6.60
2018-07-17T08:12:31.814Z,6.37
2018-07-17T08:15:00.155Z,6.00
2018-07-17T08:17:28.442Z,6.10
2018-07-17T08:19:56.802Z,5.83
2018-07-17T08:22:25.134Z,6.45
2018-07-17T08:24:53.480Z,7.10
2018-07-17T08:27:21.781Z,6.95
2018-07-17T08:29:50.152Z,7.50
2018-07-17T08:32:18.457Z,6.90
2018-07-17T08:34:46.775Z,7.90
2018-07-17T08:37:15.104Z,8.68
2018-07-17T08:39:43.420Z,8.13
2018-07-17T08:42:11.815Z,7.07
2018-07-17T08:44:40.170Z,6.53
2018-07-17T08:47:08.522Z,7.22
2018-07-17T08:49:36.965Z,7.35
2018-07-17T08:52:05.835Z,7.10
2018-07-17T08:54:34.217Z,7.25
2018-07-17T08:57:02.536Z,10.32
2018-07-17T08:59:30.880Z,10.98
2018-07-17T09:01:59.214Z,9.60
2018-07-17T09:04:27.514Z,10.10
2018-07-17T09:06:55.873Z,8.40
2018-07-17T09:09:24.224Z,9.30
2018-07-17T09:11:52.518Z,7.87
2018-07-17T09:14:20.887Z,8.90
2018-07-17T09:16:49.220Z,8.10
2018-07-17T09:19:17.594Z,8.33
2018-07-17T09:21:45.910Z,8.20
2018-07-17T09:24:14.352Z,7.92
2018-07-17T09:26:42.671Z,8.60
2018-07-17T09:29:11.022Z,8.28
2018-07-17T09:31:39.378Z,6.70
2018-07-17T09:34:07.710Z,6.70
2018-07-17T09:36:36.130Z,7.87
2018-07-17T09:39:06.324Z,7.57
2018-07-17T09:41:34.665Z,7.65
2018-07-17T09:44:03.040Z,7.20
2018-07-17T09:46:31.379Z,6.00
2018-07-17T09:48:59.744Z,6.12
2018-07-17T09:51:28.057Z,6.15
2018-07-17T09:53:56.415Z,7.12
2018-07-17T09:56:24.765Z,5.90
2018-07-17T09:58:53.082Z,4.95
2018-07-17T10:01:26.533Z,5.03
2018-07-17T10:03:54.866Z,4.60
2018-07-17T10:06:23.248Z,4.40
2018-07-17T10:08:51.543Z,4.70
2018-07-17T10:11:19.852Z,4.22
2018-07-17T10:13:48.187Z,3.90
2018-07-17T10:16:16.661Z,3.42
2018-07-17T10:18:45.058Z,4.70
2018-07-17T10:21:13.374Z,4.60
2018-07-17T10:23:41.725Z,4.00
2018-07-17T10:26:10.097Z,3.95
2018-07-17T10:28:38.440Z,3.60
2018-07-17T10:31:07.019Z,4.00
2018-07-17T10:33:35.321Z,3.33
2018-07-17T10:36:03.806Z,4.10
2018-07-17T10:38:32.136Z,3.60
2018-07-17T10:41:00.596Z,3.70
2018-07-17T10:43:28.906Z,3.00
2018-07-17T10:45:57.233Z,3.50
2018-07-17T10:48:25.552Z,3.37
2018-07-17T10:50:53.865Z,4.00
2018-07-17T10:53:22.343Z,3.60
2018-07-17T10:55:50.708Z,4.05
2018-07-17T10:58:19.079Z,4.20
2018-07-17T11:00:47.409Z,4.35
2018-07-17T11:03:15.775Z,4.10
2018-07-17T11:05:44.357Z,4.10
2018-07-17T11:08:12.710Z,4.80
2018-07-17T11:10:41.097Z,4.90
2018-07-17T11:13:09.422Z,4.20
2018-07-17T11:15:37.772Z,5.08
2018-07-17T11:18:06.127Z,5.42
2018-07-17T11:20:34.472Z,6.30
2018-07-17T11:23:02.773Z,5.92
2018-07-17T11:25:31.145Z,5.70
2018-07-17T11:27:59.506Z,5.70
2018-07-17T11:30:27.832Z,6.17
2018-07-17T11:32:56.223Z,6.10
2018-07-17T11:35:24.545Z,6.10
2018-07-17T11:37:52.908Z,6.22
2018-07-17T11:40:21.231Z,5.15
2018-07-17T11:42:49.550Z,4.53
2018-07-17T11:45:17.867Z,4.30
2018-07-17T11:47:46.218Z,4.70
2018-07-17T11:50:14.583Z,5.03
2018-07-17T11:52:42.908Z,4.60
2018-07-17T11:55:11.217Z,6.20
2018-07-17T11:57:39.575Z,6.80
2018-07-17T12:00:07.900Z,6.85
2018-07-17T12:02:36.210Z,6.57
2018-07-17T12:05:04.740Z,6.50
2018-07-17T12:07:33.136Z,8.30
2018-07-17T12:10:01.467Z,9.10
2018-07-17T12:12:29.826Z,7.87
2018-07-17T12:14:58.225Z,7.40
2018-07-17T12:17:26.529Z,6.15
2018-07-17T12:19:54.938Z,5.42
2018-07-17T12:22:23.307Z,5.40
2018-07-17T12:24:51.710Z,5.47
2018-07-17T12:27:20.097Z,4.10
2018-07-17T12:29:48.461Z,4.37
2018-07-17T12:32:16.813Z,4.65
2018-07-17T12:34:45.174Z,5.08
2018-07-17T12:37:13.536Z,4.25
2018-07-17T12:39:41.871Z,3.30
2018-07-17T12:42:10.199Z,3.70
2018-07-17T12:44:38.557Z,3.50
2018-07-17T12:47:06.930Z,3.40
2018-07-17T12:49:35.276Z,3.55
2018-07-17T12:52:03.606Z,4.17
2018-07-17T12:54:31.967Z,3.85
2018-07-17T12:57:00.286Z,4.40
2018-07-17T12:59:28.598Z,4.60
2018-07-17T13:01:56.956Z,3.92
2018-07-17T13:04:25.257Z,3.20
2018-07-17T13:06:53.592Z,3.10
2018-07-17T13:09:21.964Z,2.62
2018-07-17T13:11:50.255Z,2.40
2018-07-17T13:14:18.595Z,2.20
2018-07-17T13:16:46.951Z,1.90
2018-07-17T13:19:15.298Z,1.85
2018-07-17T13:21:43.612Z,1.50
2018-07-17T13:24:12.037Z,1.95
2018-07-17T13:26:40.401Z,1.87
2018-07-17T13:29:08.705Z,2.40
2018-07-17T13:31:37.077Z,2.77
2018-07-17T13:34:05.499Z,2.60
2018-07-17T13:36:33.812Z,2.20
2018-07-17T13:39:02.138Z,2.40
2018-07-17T13:41:30.518Z,2.72
2018-07-17T13:43:58.840Z,2.67
2018-07-17T13:46:27.192Z,2.72
2018-07-17T13:48:55.545Z,2.70
2018-07-17T13:51:23.941Z,2.53
2018-07-17T13:53:52.296Z,2.58
2018-07-17T13:56:20.709Z,2.80
2018-07-17T13:58:49.014Z,3.20
2018-07-17T14:01:17.483Z,2.70
2018-07-17T14:03:45.806Z,2.83
2018-07-17T14:06:14.157Z,2.80
2018-07-17T14:08:42.572Z,2.70
2018-07-17T14:11:10.948Z,2.58
2018-07-17T14:13:39.576Z,2.70
2018-07-17T14:16:07.905Z,2.42
2018-07-17T14:18:36.509Z,2.50
2018-07-17T14:21:04.961Z,2.23
2018-07-17T14:23:33.355Z,2.80
2018-07-17T14:26:01.733Z,2.33
2018-07-17T14:28:30.109Z,2.50
2018-07-17T14:30:58.476Z,2.42
2018-07-17T14:33:26.827Z,2.40
2018-07-17T14:35:55.316Z,3.00
2018-07-17T14:38:23.599Z,2.50
2018-07-17T14:40:51.897Z,2.52
2018-07-17T14:43:20.297Z,2.58
2018-07-17T14:45:48.677Z,2.40
2018-07-17T14:48:17.017Z,3.00
2018-07-17T14:50:45.327Z,2.80
2018-07-17T14:53:13.690Z,2.70
2018-07-17T14:55:42.058Z,2.70
2018-07-17T14:58:10.409Z,3.10
2018-07-17T15:00:38.759Z,2.87
2018-07-17T15:03:07.133Z,3.20
2018-07-17T15:05:35.481Z,2.95
2018-07-17T15:08:03.797Z,3.00
2018-07-17T15:10:32.153Z,3.22
2018-07-17T15:13:00.581Z,2.58
2018-07-17T15:15:28.946Z,2.87
2018-07-17T15:17:57.273Z,3.40
2018-07-17T15:20:25.646Z,3.00
2018-07-17T15:22:53.989Z,2.75
2018-07-17T15:25:22.336Z,2.83
2018-07-17T15:27:50.698Z,2.60
2018-07-17T15:30:19.031Z,2.15
2018-07-17T15:32:47.353Z,2.10
2018-07-17T15:35:15.771Z,2.10
2018-07-17T15:37:44.057Z,2.37
2018-07-17T15:40:12.377Z,1.95
2018-07-17T15:42:40.836Z,2.12
2018-07-17T15:45:09.326Z,1.90
2018-07-17T15:47:37.710Z,2.30
2018-07-17T15:50:06.069Z,2.13
2018-07-17T15:52:34.508Z,2.27
2018-07-17T15:55:02.873Z,2.70
2018-07-17T15:57:31.216Z,2.60
2018-07-17T15:59:59.636Z,2.60
2018-07-17T16:02:28.010Z,2.50
2018-07-17T16:04:56.519Z,2.30
2018-07-17T16:07:24.827Z,2.50
2018-07-17T16:09:53.490Z,2.90
2018-07-17T16:12:21.848Z,3.25
2018-07-17T16:14:50.706Z,2.70
2018-07-17T16:17:19.060Z,2.70
2018-07-17T16:19:47.396Z,3.37
2018-07-17T16:22:15.708Z,2.77
2018-07-17T16:24:44.156Z,3.10
2018-07-17T16:27:12.744Z,4.40
2018-07-17T16:29:41.070Z,3.40
2018-07-17T16:32:09.907Z,3.90
2018-07-17T16:34:38.216Z,2.72
2018-07-17T16:37:06.513Z,2.55
2018-07-17T16:39:35.153Z,2.75
2018-07-17T16:42:03.503Z,2.35
2018-07-17T16:44:31.802Z,2.70
2018-07-17T16:47:00.152Z,2.80
2018-07-17T16:49:28.497Z,2.90
2018-07-17T16:51:56.912Z,2.62
2018-07-17T16:54:25.346Z,2.90
2018-07-17T16:56:53.705Z,3.00
2018-07-17T16:59:21.973Z,2.83
2018-07-17T17:01:50.319Z,2.95
2018-07-17T17:04:18.655Z,3.10
2018-07-17T17:06:46.980Z,3.00
2018-07-17T17:09:15.308Z,3.80
2018-07-17T17:11:43.593Z,3.20
2018-07-17T17:14:11.935Z,3.40
2018-07-17T17:16:40.809Z,3.20
2018-07-17T17:19:09.161Z,3.73
2018-07-17T17:21:37.860Z,3.62
2018-07-17T17:24:06.456Z,3.90
2018-07-17T17:26:34.690Z,4.07
2018-07-17T17:31:44.252Z,3.40
2018-07-17T17:34:12.553Z,3.70
2018-07-17T17:36:40.948Z,3.50
2018-07-17T17:39:10.564Z,5.20
2018-07-17T17:41:39.173Z,4.30
2018-07-17T17:44:08.437Z,3.70
2018-07-17T17:46:37.180Z,3.60
2018-07-17T17:49:05.817Z,3.40
2018-07-17T17:51:34.168Z,3.80
2018-07-17T17:54:02.597Z,3.90
2018-07-17T17:56:30.943Z,3.75
2018-07-17T17:58:59.298Z,4.00
2018-07-17T18:01:27.653Z,11.20
2018-07-17T18:03:56.060Z,5.50
2018-07-17T18:06:24.372Z,5.20
2018-07-17T18:08:52.870Z,4.92
2018-07-17T18:11:21.217Z,5.28
2018-07-17T18:13:49.740Z,4.70
2018-07-17T18:16:18.189Z,5.60
2018-07-17T18:18:46.555Z,4.50
2018-07-17T18:21:14.907Z,6.20
2018-07-17T18:23:43.287Z,4.70
2018-07-17T18:26:11.674Z,5.53
2018-07-17T18:28:40.104Z,5.00
2018-07-17T18:31:08.668Z,5.53
2018-07-17T18:33:37.032Z,5.00
2018-07-17T18:36:05.448Z,5.33
2018-07-17T18:38:33.972Z,5.05
2018-07-17T18:41:02.443Z,5.10
2018-07-17T18:43:30.811Z,5.10
2018-07-17T18:45:59.155Z,6.03
2018-07-17T18:48:27.500Z,5.80
2018-07-17T18:50:55.870Z,5.85
2018-07-17T18:53:24.203Z,6.60
2018-07-17T18:55:52.489Z,7.23
2018-07-17T18:58:20.855Z,10.10
2018-07-17T19:00:49.213Z,10.72
2018-07-17T19:03:17.536Z,11.25
2018-07-17T19:05:45.998Z,9.83
2018-07-17T19:08:14.358Z,10.10
2018-07-17T19:10:42.700Z,8.73
2018-07-17T19:13:11.039Z,7.90
2018-07-17T19:15:39.464Z,7.87
2018-07-17T19:18:07.999Z,8.80
2018-07-17T19:20:36.733Z,10.20
2018-07-17T19:23:05.111Z,9.15
2018-07-17T19:25:33.551Z,15.08
2018-07-17T19:28:01.874Z,8.78
2018-07-17T19:30:30.284Z,8.60
2018-07-17T19:32:58.724Z,8.33
2018-07-17T19:35:27.136Z,9.40
2018-07-17T19:37:55.401Z,8.28
2018-07-17T19:40:23.771Z,7.83
2018-07-17T19:42:52.183Z,10.15
2018-07-17T19:45:20.524Z,4.85
2018-07-17T19:47:48.843Z,7.25
2018-07-17T19:50:17.276Z,4.12
2018-07-17T19:52:45.653Z,5.33
2018-07-17T19:55:13.985Z,5.55
2018-07-17T19:57:42.470Z,5.47
2018-07-17T20:00:10.900Z,3.98
2018-07-17T20:02:39.240Z,4.92
2018-07-17T20:05:07.600Z,3.90
2018-07-17T20:07:35.958Z,3.33
2018-07-17T20:10:04.794Z,4.00
2018-07-17T20:12:33.153Z,3.42
2018-07-17T20:15:01.475Z,3.20
2018-07-17T20:17:29.846Z,3.42
2018-07-17T20:19:58.237Z,3.27
2018-07-17T20:22:26.574Z,4.57
2018-07-17T20:24:54.915Z,4.07
2018-07-17T20:27:23.262Z,3.45
2018-07-17T20:29:51.578Z,2.70
2018-07-17T20:32:19.981Z,3.10
2018-07-17T20:34:48.278Z,3.12
2018-07-17T20:37:16.657Z,3.52
2018-07-17T20:39:45.081Z,2.67
2018-07-17T20:42:13.423Z,2.40
2018-07-17T20:44:41.766Z,3.40
2018-07-17T20:47:10.086Z,2.70
2018-07-17T20:49:38.411Z,3.15
2018-07-17T20:52:06.987Z,3.00
2018-07-17T20:54:35.657Z,3.47
2018-07-17T20:57:04.017Z,3.17
2018-07-17T20:59:32.365Z,3.20
2018-07-17T21:02:00.704Z,2.90
2018-07-17T21:04:29.022Z,2.90
2018-07-17T21:06:57.363Z,2.50
2018-07-17T21:09:25.717Z,2.40
2018-07-17T21:11:54.033Z,3.60
2018-07-17T21:14:22.463Z,2.52
2018-07-17T21:16:50.799Z,2.60
2018-07-17T21:19:19.107Z,2.50
2018-07-17T21:21:47.468Z,3.13
2018-07-17T21:24:15.811Z,2.30
2018-07-17T21:26:44.250Z,3.40
2018-07-17T21:29:12.612Z,2.70
2018-07-17T21:31:41.044Z,3.13
2018-07-17T21:34:09.411Z,3.27
2018-07-17T21:36:37.751Z,2.80
2018-07-17T21:39:08.743Z,2.20
2018-07-17T21:41:37.070Z,2.37
2018-07-17T21:44:05.406Z,2.20
2018-07-17T21:46:33.773Z,3.60
2018-07-17T21:49:02.120Z,2.20
2018-07-17T21:51:30.397Z,1.80
2018-07-17T21:53:58.767Z,2.00
2018-07-17T21:56:27.181Z,1.57
2018-07-17T21:58:55.461Z,2.10
2018-07-17T22:01:23.814Z,2.50
2018-07-17T22:03:52.160Z,2.20
2018-07-17T22:06:20.560Z,2.17
2018-07-17T22:08:48.911Z,2.60
2018-07-17T22:11:17.221Z,2.20
2018-07-17T22:13:45.545Z,1.70
2018-07-17T22:16:13.900Z,1.77
2018-07-17T22:18:42.249Z,2.60
2018-07-17T22:21:10.614Z,3.80
2018-07-17T22:23:38.958Z,3.30
2018-07-17T22:26:07.330Z,3.85
2018-07-17T22:28:35.672Z,2.20
2018-07-17T22:31:04.061Z,3.02
2018-07-17T22:33:32.399Z,2.05
2018-07-17T22:36:01.758Z,2.30
2018-07-17T22:38:30.087Z,2.17
2018-07-17T22:40:58.483Z,2.00
2018-07-17T22:43:27.006Z,1.90
2018-07-17T22:45:55.360Z,1.90
2018-07-17T22:48:23.770Z,1.90
2018-07-17T22:50:52.140Z,2.45
2018-07-17T22:53:20.677Z,2.00
2018-07-17T22:55:49.028Z,1.90
2018-07-17T22:58:17.332Z,2.00
2018-07-17T23:00:45.798Z,2.00
2018-07-17T23:03:14.158Z,2.03
2018-07-17T23:05:42.483Z,2.00
2018-07-17T23:08:10.902Z,2.10
2018-07-17T23:10:39.265Z,1.90
2018-07-17T23:13:07.590Z,1.80
2018-07-17T23:15:35.985Z,2.10
2018-07-17T23:18:04.295Z,2.13
2018-07-17T23:20:32.712Z,2.23
2018-07-17T23:23:01.247Z,2.23
2018-07-17T23:25:30.952Z,2.30
2018-07-17T23:27:59.914Z,2.80
2018-07-17T23:30:28.566Z,2.90
2018-07-17T23:32:56.931Z,2.37
2018-07-17T23:35:26.007Z,2.20
2018-07-17T23:37:54.573Z,2.30
2018-07-17T23:40:23.357Z,2.60
2018-07-17T23:42:51.723Z,2.40
2018-07-17T23:45:20.070Z,2.60
2018-07-17T23:47:49.108Z,2.65
2018-07-17T23:50:17.602Z,2.60
2018-07-17T23:52:45.952Z,2.50
2018-07-17T23:55:14.275Z,2.80
2018-07-17T23:57:42.637Z,2.90
